createdAt,value
2023-03-04T00:02:10.588Z,2.90
2023-03-04T00:07:16.730Z,2.90
2023-03-04T00:12:18.903Z,2.90
2023-03-04T00:17:20.816Z,3.00
2023-03-04T00:22:22.801Z,2.80
2023-03-04T00:27:24.607Z,2.80
2023-03-04T00:32:26.527Z,2.70
2023-03-04T00:37:28.250Z,2.60
2023-03-04T00:42:30.070Z,2.60
2023-03-04T00:47:32.025Z,2.60
2023-03-04T00:52:34.198Z,2.60
2023-03-04T00:57:36.270Z,2.60
2023-03-04T01:02:38.357Z,2.60
2023-03-04T01:07:40.193Z,2.60
2023-03-04T01:12:43.233Z,2.50
2023-03-04T01:17:45.921Z,2.50
2023-03-04T01:22:48.109Z,2.30
2023-03-04T01:27:50.154Z,2.30
2023-03-04T01:32:52.161Z,2.30
2023-03-04T01:37:54.165Z,2.30
2023-03-04T01:42:56.006Z,2.30
2023-03-04T01:47:58.126Z,2.30
2023-03-04T01:53:01.239Z,2.30
2023-03-04T01:58:05.922Z,2.20
2023-03-04T02:03:12.594Z,2.10
2023-03-04T02:08:15.661Z,2.20
2023-03-04T02:13:18.288Z,2.30
2023-03-04T02:18:24.619Z,2.00
2023-03-04T02:24:06.479Z,2.00
2023-03-04T02:29:11.411Z,2.10
2023-03-04T02:34:22.492Z,2.00
2023-03-04T02:39:35.348Z,2.10
2023-03-04T02:44:43.749Z,2.00
2023-03-04T02:49:46.186Z,2.00
2023-03-04T02:54:48.215Z,1.80
2023-03-04T02:59:50.498Z,1.70
2023-03-04T03:04:52.272Z,1.80
2023-03-04T03:09:53.985Z,1.80
2023-03-04T03:14:55.965Z,1.80
2023-03-04T03:19:58.107Z,1.80
2023-03-04T03:24:59.814Z,1.60
2023-03-04T03:30:01.809Z,1.60
2023-03-04T03:35:03.919Z,1.70
2023-03-04T03:40:06.261Z,1.70
2023-03-04T03:45:08.606Z,1.50
2023-03-04T03:50:10.964Z,1.50
2023-03-04T03:55:12.884Z,1.50
2023-03-04T04:00:16.670Z,1.40
2023-03-04T04:05:18.835Z,1.30
2023-03-04T04:10:21.635Z,1.30
2023-03-04T04:15:23.697Z,1.40
2023-03-04T04:20:26.308Z,1.30
2023-03-04T04:25:28.233Z,1.30
2023-03-04T04:30:32.107Z,1.20
2023-03-04T04:35:36.579Z,1.10
2023-03-04T04:40:38.618Z,1.10
2023-03-04T04:45:40.626Z,0.90
2023-03-04T04:50:42.308Z,3.50
2023-03-04T04:55:44.626Z,0.80
2023-03-04T05:00:46.540Z,0.70
2023-03-04T05:05:49.204Z,0.70
2023-03-04T05:10:51.744Z,0.80
2023-03-04T05:15:55.083Z,0.80
2023-03-04T05:20:59.953Z,0.90
2023-03-04T05:26:02.970Z,1.00
2023-03-04T05:31:04.924Z,0.90
2023-03-04T05:36:08.334Z,0.80
2023-03-04T05:41:10.658Z,1.00
2023-03-04T05:46:16.472Z,1.10
2023-03-04T05:51:19.815Z,1.00
2023-03-04T05:56:22.979Z,1.10
2023-03-04T06:01:25.533Z,1.10
2023-03-04T06:06:27.557Z,1.20
2023-03-04T06:11:29.584Z,1.10
2023-03-04T06:16:32.050Z,1.50
2023-03-04T06:21:33.958Z,1.50
2023-03-04T06:26:35.787Z,1.50
2023-03-04T06:31:37.753Z,1.40
2023-03-04T06:36:39.575Z,1.50
2023-03-04T06:41:41.403Z,1.50
2023-03-04T06:46:43.335Z,1.60
2023-03-04T06:51:45.440Z,1.70
2023-03-04T06:56:47.347Z,1.90
2023-03-04T07:01:49.125Z,2.00
2023-03-04T07:06:51.608Z,2.10
2023-03-04T07:11:53.344Z,2.10
2023-03-04T07:16:55.588Z,2.10
2023-03-04T07:21:57.690Z,2.50
2023-03-04T07:26:59.497Z,2.50
2023-03-04T07:32:01.584Z,2.50
2023-03-04T07:37:03.882Z,2.60
2023-03-04T07:42:06.013Z,2.30
2023-03-04T07:47:07.785Z,2.30
2023-03-04T07:52:11.358Z,2.80
2023-03-04T07:57:13.088Z,2.80
2023-03-04T08:02:15.870Z,2.80
2023-03-04T08:07:17.767Z,3.00
2023-03-04T08:12:19.827Z,3.20
2023-03-04T08:17:22.105Z,3.20
2023-03-04T08:22:23.924Z,3.40
2023-03-04T08:27:26.228Z,3.50
2023-03-04T08:32:28.368Z,3.50
2023-03-04T08:37:30.499Z,3.50
2023-03-04T08:42:32.783Z,3.50
2023-03-04T08:47:34.581Z,3.70
2023-03-04T08:52:36.387Z,3.60
2023-03-04T08:57:38.196Z,3.80
2023-03-04T09:02:39.944Z,3.80
2023-03-04T09:07:42.204Z,3.60
2023-03-04T09:12:44.021Z,3.80
2023-03-04T09:17:45.905Z,3.80
2023-03-04T09:22:47.777Z,3.90
2023-03-04T09:33:01.587Z,5.90
2023-03-04T09:38:03.947Z,3.70
2023-03-04T09:43:11.786Z,3.80
2023-03-04T09:48:18.870Z,4.20
2023-03-04T09:53:34.433Z,3.90
2023-03-04T09:59:00.089Z,4.00
2023-03-04T10:04:19.341Z,4.30
2023-03-04T10:09:28.353Z,3.90
2023-03-04T10:14:47.032Z,4.00
2023-03-04T10:20:04.394Z,4.20
2023-03-04T10:25:30.555Z,4.20
2023-03-04T10:31:03.164Z,4.20
2023-03-04T10:36:28.104Z,4.40
2023-03-04T10:41:32.070Z,4.70
2023-03-04T10:46:37.568Z,4.50
2023-03-04T10:51:50.274Z,4.20
2023-03-04T10:57:17.143Z,4.40
2023-03-04T11:02:27.986Z,4.20
2023-03-04T11:07:31.531Z,4.20
2023-03-04T11:12:45.301Z,4.60
2023-03-04T11:17:53.641Z,4.00
2023-03-04T11:23:00.547Z,4.60
2023-03-04T11:28:18.694Z,4.40
2023-03-04T11:33:42.305Z,4.10
2023-03-04T11:38:50.492Z,4.10
2023-03-04T11:49:05.151Z,4.70
2023-03-04T11:59:29.710Z,4.50
2023-03-04T12:09:49.540Z,4.80
2023-03-04T12:15:08.273Z,4.90
2023-03-04T12:20:25.652Z,5.10
2023-03-04T12:25:52.347Z,4.80
2023-03-04T12:31:07.063Z,4.50
2023-03-04T12:36:27.577Z,4.90
2023-03-04T12:41:35.390Z,5.10
2023-03-04T12:47:07.212Z,5.10
2023-03-04T12:52:32.479Z,5.20
2023-03-04T12:57:35.539Z,5.10
2023-03-04T13:02:51.885Z,5.40
2023-03-04T13:08:17.896Z,4.80
2023-03-04T13:13:35.035Z,4.50
2023-03-04T13:18:39.640Z,4.80
2023-03-04T13:23:59.282Z,4.60
2023-03-04T13:29:19.450Z,5.00
2023-03-04T13:34:50.480Z,5.20
2023-03-04T13:40:32.730Z,5.20
2023-03-04T13:45:39.249Z,5.10
2023-03-04T13:50:46.341Z,5.10
2023-03-04T13:56:07.340Z,5.20
2023-03-04T14:01:28.551Z,5.20
2023-03-04T14:06:31.774Z,5.20
2023-03-04T14:11:41.934Z,5.10
2023-03-04T14:16:54.955Z,4.90
2023-03-04T14:21:57.879Z,5.20
2023-03-04T14:27:14.451Z,4.70
2023-03-04T14:32:16.339Z,5.10
2023-03-04T14:37:33.432Z,5.10
2023-03-04T14:42:41.376Z,5.10
2023-03-04T14:47:47.422Z,5.00
2023-03-04T14:52:52.069Z,5.00
2023-03-04T14:58:08.919Z,5.00
2023-03-04T15:03:25.544Z,4.90
2023-03-04T15:08:36.169Z,4.90
2023-03-04T15:13:42.282Z,5.10
2023-03-04T15:19:06.069Z,5.10
2023-03-04T15:24:11.941Z,5.10
2023-03-04T15:29:15.712Z,5.10
2023-03-04T15:34:20.274Z,4.80
2023-03-04T15:39:23.468Z,5.00
2023-03-04T15:44:25.290Z,4.90
2023-03-04T15:49:27.094Z,4.70
2023-03-04T15:54:29.581Z,4.90
2023-03-04T15:59:31.730Z,5.00
2023-03-04T16:19:41.197Z,4.60
2023-03-04T16:24:43.220Z,4.50
2023-03-04T16:29:45.102Z,4.70
2023-03-04T16:34:51.113Z,4.80
2023-03-04T16:39:53.125Z,4.80
2023-03-04T16:44:56.363Z,4.80
2023-03-04T16:50:01.013Z,4.80
2023-03-04T17:00:08.269Z,4.60
2023-03-04T17:05:31.407Z,4.70
2023-03-04T17:30:44.673Z,4.60
2023-03-04T17:56:00.969Z,4.50
2023-03-04T18:01:13.946Z,4.60
2023-03-04T18:06:17.416Z,4.70
2023-03-04T18:11:24.381Z,4.70
2023-03-04T18:16:29.118Z,4.80
2023-03-04T18:21:31.842Z,4.70
2023-03-04T18:26:33.954Z,4.80
2023-03-04T18:36:39.257Z,4.80
2023-03-04T18:41:41.250Z,4.70
2023-03-04T18:46:47.027Z,4.80
2023-03-04T18:51:48.853Z,4.90
2023-03-04T18:56:57.482Z,4.80
2023-03-04T19:02:03.959Z,4.90
2023-03-04T19:17:10.970Z,4.80
2023-03-04T19:22:13.077Z,4.80
2023-03-04T19:27:15.120Z,4.60
2023-03-04T19:32:17.594Z,4.60
2023-03-04T19:37:19.757Z,4.80
2023-03-04T19:42:21.912Z,4.70
2023-03-04T19:47:23.998Z,4.60
2023-03-04T19:57:28.670Z,4.70
2023-03-04T20:07:33.680Z,4.80
2023-03-04T20:12:37.137Z,4.80
2023-03-04T20:17:39.001Z,4.90
2023-03-04T20:22:41.016Z,4.90
2023-03-04T20:32:45.719Z,4.50
2023-03-04T20:37:47.766Z,4.60
2023-03-04T20:42:49.644Z,4.80
2023-03-04T20:47:51.519Z,5.00
2023-03-04T20:52:53.524Z,5.00
2023-03-04T20:57:55.311Z,4.80
2023-03-04T21:13:02.186Z,5.00
2023-03-04T21:18:04.431Z,4.80
2023-03-04T21:23:06.379Z,4.60
2023-03-04T21:28:08.517Z,4.90
2023-03-04T21:33:19.347Z,4.90
2023-03-04T21:43:24.210Z,4.90
2023-03-04T21:48:27.068Z,4.90
2023-03-04T21:53:29.600Z,6.20
2023-03-04T21:58:35.333Z,4.90
2023-03-04T22:03:38.038Z,4.90
2023-03-04T22:08:40.291Z,4.80
2023-03-04T22:13:42.113Z,4.70
2023-03-04T22:18:44.165Z,4.80
2023-03-04T22:28:49.040Z,4.90
2023-03-04T22:33:50.798Z,4.90
2023-03-04T22:38:53.023Z,4.90
2023-03-04T22:43:54.996Z,4.90
2023-03-04T22:48:59.757Z,4.90
2023-03-04T22:54:01.663Z,4.80
2023-03-04T23:04:06.127Z,4.80
2023-03-04T23:09:08.539Z,4.80
2023-03-04T23:14:12.059Z,4.90
2023-03-04T23:19:17.490Z,4.90
2023-03-04T23:24:20.247Z,4.80
2023-03-04T23:34:24.540Z,4.90
2023-03-04T23:39:26.683Z,4.80
2023-03-04T23:44:28.558Z,4.80
2023-03-04T23:54:32.940Z,4.70
